createdAt,value
2022-08-26T03:17:39.917Z,16.98
2022-08-26T03:20:50.079Z,16.92
2022-08-26T03:24:00.488Z,16.90
2022-08-26T03:27:10.420Z,16.85
2022-08-26T03:30:31.948Z,16.83
2022-08-26T03:33:44.286Z,16.83
2022-08-26T03:36:55.627Z,16.79
2022-08-26T03:40:08.917Z,16.76
2022-08-26T03:43:20.011Z,16.72
2022-08-26T03:46:31.690Z,16.66
2022-08-26T03:49:43.037Z,16.62
2022-08-26T03:52:55.066Z,16.60
2022-08-26T03:56:06.028Z,16.62
2022-08-26T03:59:15.971Z,16.66
2022-08-26T04:02:26.332Z,16.69
2022-08-26T04:05:37.550Z,16.70
2022-08-26T04:08:48.567Z,16.66
2022-08-26T04:11:58.805Z,16.62
2022-08-26T04:15:11.976Z,16.57
2022-08-26T04:18:22.170Z,16.55
2022-08-26T04:21:33.949Z,16.54
2022-08-26T04:24:43.868Z,16.47
2022-08-26T04:27:53.748Z,16.44
2022-08-26T04:31:03.994Z,16.41
2022-08-26T04:34:14.059Z,16.38
2022-08-26T04:37:25.485Z,16.38
2022-08-26T04:40:35.597Z,16.34
2022-08-26T04:43:47.065Z,16.33
2022-08-26T04:46:57.715Z,16.30
2022-08-26T04:50:08.951Z,16.27
2022-08-26T04:53:23.254Z,16.24
2022-08-26T04:56:37.971Z,16.29
2022-08-26T04:59:47.913Z,16.31
2022-08-26T06:42:16.987Z,19.17
2022-08-26T06:45:27.660Z,19.35
2022-08-26T06:48:37.411Z,19.55
2022-08-26T06:51:46.913Z,19.73
2022-08-26T06:54:58.502Z,19.91
2022-08-26T06:58:11.230Z,20.18
2022-08-26T07:01:23.346Z,20.45
2022-08-26T07:04:34.481Z,20.78
2022-08-26T07:07:45.352Z,21.13
2022-08-26T07:10:55.861Z,21.44
2022-08-26T07:14:07.358Z,21.76
2022-08-26T07:17:17.295Z,22.08
2022-08-26T07:20:31.271Z,22.43
2022-08-26T07:23:41.795Z,22.67
2022-08-26T07:26:51.845Z,22.89
2022-08-26T07:30:04.507Z,23.15
2022-08-26T07:33:14.255Z,23.48
2022-08-26T07:36:24.365Z,23.73
2022-08-26T07:39:34.240Z,23.93
2022-08-26T07:42:44.550Z,24.15
2022-08-26T07:45:55.411Z,24.38
2022-08-26T07:49:05.640Z,24.64
2022-08-26T07:52:16.544Z,24.99
2022-08-26T07:55:34.361Z,25.23
2022-08-26T07:58:51.322Z,25.75
2022-08-26T08:02:02.719Z,26.32
2022-08-26T08:05:14.483Z,26.46
2022-08-26T08:08:29.276Z,26.75
2022-08-26T08:11:38.847Z,27.05
2022-08-26T08:14:48.904Z,27.13
2022-08-26T08:18:08.117Z,27.39
2022-08-26T08:21:26.096Z,27.55
2022-08-26T08:24:36.295Z,27.54
2022-08-26T08:27:46.267Z,27.81
2022-08-26T08:30:56.244Z,28.11
2022-08-26T08:34:07.048Z,28.31
2022-08-26T08:37:16.558Z,28.45
2022-08-26T08:40:27.903Z,28.66
2022-08-26T08:43:41.303Z,29.01
2022-08-26T08:46:54.288Z,29.23
2022-08-26T08:50:16.401Z,29.58
2022-08-26T08:53:32.842Z,30.09
2022-08-26T08:56:47.647Z,30.05
2022-08-26T09:00:03.794Z,30.07
2022-08-26T09:03:30.838Z,30.27
2022-08-26T09:06:44.987Z,30.48
2022-08-26T09:09:59.084Z,30.71
2022-08-26T09:13:13.705Z,30.82
2022-08-26T09:16:34.384Z,31.12
2022-08-26T09:19:50.175Z,30.98
2022-08-26T09:23:01.108Z,31.25
2022-08-26T09:26:16.443Z,31.27
2022-08-26T09:29:28.649Z,31.15
2022-08-26T09:32:38.185Z,31.24
2022-08-26T09:35:52.190Z,31.77
2022-08-26T09:39:04.416Z,32.43
2022-08-26T09:42:22.232Z,32.48
2022-08-26T09:45:31.963Z,32.44
2022-08-26T09:48:42.554Z,32.32
2022-08-26T09:52:07.047Z,32.45
2022-08-26T09:55:24.209Z,32.10
2022-08-26T09:58:38.162Z,32.26
2022-08-26T10:01:48.008Z,32.29
2022-08-26T10:04:59.363Z,32.64
2022-08-26T10:08:24.158Z,32.92
2022-08-26T10:11:40.986Z,32.56
2022-08-26T10:14:55.689Z,32.11
2022-08-26T10:18:11.819Z,32.03
2022-08-26T10:21:25.765Z,32.14
2022-08-26T10:24:42.190Z,32.39
2022-08-26T10:28:02.224Z,32.41
2022-08-26T10:31:27.481Z,32.75
2022-08-26T10:34:37.590Z,33.07
2022-08-26T10:37:50.238Z,32.68
2022-08-26T10:41:10.350Z,32.69
2022-08-26T10:44:22.441Z,32.89
2022-08-26T10:47:39.168Z,33.17
2022-08-26T10:50:49.208Z,33.17
2022-08-26T10:54:03.701Z,33.50
2022-08-26T10:57:20.225Z,33.72
2022-08-26T11:00:46.554Z,33.37
2022-08-26T11:04:03.828Z,33.38
2022-08-26T11:07:31.791Z,33.68
2022-08-26T11:10:59.079Z,34.23
2022-08-26T11:14:10.451Z,33.97
2022-08-26T11:17:55.174Z,33.69
2022-08-26T11:21:37.512Z,33.85
2022-08-26T11:25:02.124Z,33.80
2022-08-26T11:28:34.254Z,33.99
2022-08-26T11:31:56.150Z,33.79
2022-08-26T11:35:09.805Z,33.85
2022-08-26T11:38:26.062Z,33.70
2022-08-26T11:41:36.460Z,33.91
2022-08-26T11:44:49.187Z,34.36
2022-08-26T11:47:59.383Z,34.19
2022-08-26T11:51:12.496Z,34.21
2022-08-26T11:54:35.223Z,34.15
2022-08-26T11:58:12.354Z,34.41
2022-08-26T12:01:27.529Z,35.01
2022-08-26T12:04:43.169Z,34.90
2022-08-26T12:07:55.736Z,34.95
2022-08-26T12:11:10.053Z,35.01
2022-08-26T12:14:22.707Z,34.77
2022-08-26T12:17:33.748Z,34.35
2022-08-26T12:20:48.227Z,33.96
2022-08-26T12:24:00.668Z,33.26
2022-08-26T12:27:17.022Z,32.62
2022-08-26T12:30:26.690Z,32.27
2022-08-26T12:38:02.020Z,32.96
2022-08-26T12:41:12.895Z,33.36
2022-08-26T12:44:36.544Z,33.15
2022-08-26T12:47:47.005Z,32.74
2022-08-26T12:50:57.772Z,32.31
2022-08-26T12:54:15.819Z,31.80
2022-08-26T12:57:29.605Z,31.41
2022-08-26T13:04:33.310Z,31.24
2022-08-26T13:07:42.908Z,31.32
2022-08-26T13:11:04.597Z,31.44
2022-08-26T13:14:21.238Z,31.61
2022-08-26T13:17:35.780Z,31.75
2022-08-26T13:20:45.535Z,31.60
2022-08-26T13:23:55.903Z,31.43
2022-08-26T13:27:07.048Z,31.42
2022-08-26T13:30:18.087Z,31.40
2022-08-26T13:33:27.756Z,31.17
2022-08-26T13:36:37.867Z,30.91
2022-08-26T13:39:48.128Z,30.90
2022-08-26T13:42:57.740Z,30.82
2022-08-26T13:46:08.923Z,30.62
2022-08-26T13:49:18.691Z,30.44
2022-08-26T13:52:31.007Z,30.26
2022-08-26T13:55:41.220Z,30.09
2022-08-26T13:58:51.042Z,29.94
2022-08-26T14:02:02.795Z,29.79
2022-08-26T14:05:13.256Z,29.62
2022-08-26T14:08:23.985Z,29.42
2022-08-26T14:11:39.025Z,29.28
2022-08-26T14:15:00.392Z,29.20
2022-08-26T14:18:15.997Z,29.06
2022-08-26T14:21:26.844Z,28.92
2022-08-26T14:24:36.383Z,28.77
2022-08-26T14:27:46.057Z,28.70
2022-08-26T14:30:59.232Z,28.54
2022-08-26T14:34:10.239Z,28.39
2022-08-26T14:37:20.428Z,28.30
2022-08-26T14:40:33.991Z,28.06
2022-08-26T14:43:49.401Z,27.68
2022-08-26T14:47:01.956Z,27.45
2022-08-26T14:50:14.211Z,27.21
2022-08-26T14:53:34.768Z,27.02
2022-08-26T14:56:48.705Z,26.85
2022-08-26T14:59:58.701Z,26.70
2022-08-26T15:03:09.041Z,26.41
2022-08-26T15:06:20.459Z,26.24
2022-08-26T15:09:32.647Z,26.14
2022-08-26T15:12:42.977Z,26.05
2022-08-26T15:15:52.605Z,26.00
2022-08-26T15:19:04.404Z,25.94
2022-08-26T15:22:15.298Z,25.85
2022-08-26T15:25:25.056Z,25.70
2022-08-26T15:28:34.594Z,25.66
2022-08-26T15:31:44.256Z,25.70
2022-08-26T15:34:53.883Z,25.71
2022-08-26T15:38:04.753Z,25.70
2022-08-26T15:41:14.550Z,25.71
2022-08-26T15:44:24.107Z,25.81
2022-08-26T15:47:33.667Z,25.74
2022-08-26T15:51:01.357Z,25.85
2022-08-26T15:54:12.248Z,25.95
2022-08-26T15:57:21.784Z,26.04
2022-08-26T16:00:31.389Z,26.16
2022-08-26T16:03:40.940Z,26.28
2022-08-26T16:06:51.972Z,26.26
2022-08-26T16:10:02.961Z,26.21
2022-08-26T16:13:14.792Z,26.12
2022-08-26T16:16:24.777Z,26.08
2022-08-26T16:19:34.378Z,26.11
2022-08-26T16:22:44.302Z,26.09
2022-08-26T16:25:55.090Z,26.12
2022-08-26T16:29:07.532Z,26.15
2022-08-26T16:32:17.182Z,26.09
2022-08-26T16:35:28.935Z,26.03
2022-08-26T16:38:39.917Z,25.92
2022-08-26T16:41:50.784Z,25.73
2022-08-26T16:45:00.626Z,25.49
2022-08-26T16:48:10.575Z,25.35
2022-08-26T16:51:23.268Z,25.31
2022-08-26T16:54:32.850Z,25.17
2022-08-26T16:57:45.558Z,25.03
2022-08-26T17:00:55.401Z,25.02
2022-08-26T17:04:05.192Z,24.91
2022-08-26T17:07:14.785Z,24.98
2022-08-26T17:10:25.948Z,24.99
2022-08-26T17:13:38.966Z,24.93
2022-08-26T17:16:51.073Z,24.82
2022-08-26T17:20:05.773Z,24.79
2022-08-26T17:23:16.021Z,24.72
2022-08-26T17:26:29.085Z,24.61
2022-08-26T17:29:40.325Z,24.53
2022-08-26T17:32:50.614Z,24.40
2022-08-26T17:36:00.554Z,24.12
2022-08-26T17:39:11.031Z,24.05
2022-08-26T17:42:20.565Z,24.00
2022-08-26T17:45:43.202Z,23.92
2022-08-26T17:48:52.733Z,23.85
2022-08-26T17:52:02.255Z,23.80
2022-08-26T17:55:15.399Z,23.80
2022-08-26T17:58:26.581Z,23.83
2022-08-26T18:01:40.601Z,23.79
2022-08-26T18:04:50.217Z,23.66
2022-08-26T18:07:59.726Z,23.61
2022-08-26T18:11:10.429Z,23.53
2022-08-26T18:14:19.911Z,23.37
2022-08-26T18:17:30.802Z,23.34
2022-08-26T18:20:42.189Z,23.25
2022-08-26T18:23:52.600Z,23.15
2022-08-26T18:27:02.141Z,23.13
2022-08-26T18:30:16.564Z,23.18
2022-08-26T18:33:27.563Z,23.17
2022-08-26T18:36:37.792Z,23.20
2022-08-26T18:39:47.253Z,23.22
2022-08-26T18:42:56.812Z,23.26
2022-08-26T18:46:08.935Z,23.20
2022-08-26T18:49:21.574Z,23.17
2022-08-26T18:52:32.571Z,23.13
2022-08-26T18:55:42.103Z,23.13
2022-08-26T18:58:51.967Z,23.06
2022-08-26T19:02:01.716Z,23.04
2022-08-26T19:05:12.589Z,23.02
2022-08-26T19:08:22.531Z,23.02
2022-08-26T19:11:37.319Z,23.08
2022-08-26T19:14:49.482Z,23.12
2022-08-26T19:17:59.389Z,23.14
2022-08-26T19:21:10.507Z,23.09
2022-08-26T19:24:20.989Z,23.08
2022-08-26T19:27:30.622Z,23.09
2022-08-26T19:30:41.064Z,23.07
2022-08-26T19:33:50.608Z,23.04
2022-08-26T19:37:02.404Z,22.96
2022-08-26T19:40:12.374Z,22.85
2022-08-26T19:43:21.904Z,22.66
2022-08-26T19:46:32.926Z,22.51
2022-08-26T19:49:42.557Z,22.47
2022-08-26T19:52:53.878Z,22.42
2022-08-26T19:56:03.673Z,22.36
2022-08-26T19:59:13.191Z,22.42
2022-08-26T20:02:22.768Z,22.42
2022-08-26T20:05:32.571Z,22.39
2022-08-26T20:08:44.268Z,22.29
2022-08-26T20:11:53.891Z,22.21
2022-08-26T20:15:07.426Z,22.11
2022-08-26T20:18:27.915Z,22.00
2022-08-26T20:21:40.040Z,21.98
2022-08-26T20:24:51.546Z,22.08
2022-08-26T20:28:01.859Z,22.14
2022-08-26T20:31:12.486Z,22.09
2022-08-26T20:34:23.488Z,22.13
2022-08-26T20:37:33.088Z,22.10
2022-08-26T20:40:43.935Z,22.15
2022-08-26T20:43:53.949Z,22.19
2022-08-26T20:47:03.517Z,22.22
2022-08-26T20:50:13.063Z,22.25
2022-08-26T20:53:22.927Z,22.23
2022-08-26T20:56:36.786Z,22.19
2022-08-26T20:59:46.381Z,22.21
2022-08-26T21:02:56.505Z,22.24
2022-08-26T21:06:06.367Z,22.31
2022-08-26T21:09:16.390Z,22.33
2022-08-26T21:12:27.307Z,22.33
2022-08-26T21:15:36.864Z,22.30
2022-08-26T21:18:46.432Z,22.25
2022-08-26T21:21:56.096Z,22.22
2022-08-26T21:25:06.325Z,22.21
2022-08-26T21:28:17.845Z,22.19
2022-08-26T21:31:27.694Z,22.15
2022-08-26T21:34:37.283Z,22.13
2022-08-26T21:37:47.427Z,22.08
2022-08-26T21:40:58.474Z,22.06
2022-08-26T21:44:10.062Z,22.06
2022-08-26T21:47:19.682Z,22.01
2022-08-26T21:50:30.430Z,21.98
2022-08-26T21:53:41.226Z,21.98
2022-08-26T21:56:50.782Z,21.99
2022-08-26T22:00:04.480Z,21.97
2022-08-26T22:03:15.268Z,21.88
2022-08-26T22:06:28.635Z,21.79
2022-08-26T22:09:38.175Z,21.74
2022-08-26T22:12:49.252Z,21.69
2022-08-26T22:16:00.736Z,21.64
2022-08-26T22:19:17.018Z,21.64
